createdAt,value
2023-03-20T00:01:58.732Z,10.90
2023-03-20T00:04:29.476Z,10.80
2023-03-20T00:06:57.703Z,10.80
2023-03-20T00:09:26.653Z,10.90
2023-03-20T00:11:56.638Z,11.00
2023-03-20T00:14:26.288Z,11.00
2023-03-20T00:16:54.366Z,11.00
2023-03-20T00:19:24.446Z,11.00
2023-03-20T00:21:55.382Z,11.00
2023-03-20T00:24:24.493Z,11.00
2023-03-20T00:26:54.035Z,11.00
2023-03-20T00:29:24.500Z,11.00
2023-03-20T00:31:53.274Z,11.00
2023-03-20T00:34:23.664Z,11.00
2023-03-20T00:36:53.465Z,11.00
2023-03-20T00:39:22.113Z,11.00
2023-03-20T00:41:52.676Z,11.00
2023-03-20T00:44:24.301Z,11.10
2023-03-20T00:46:55.143Z,11.10
2023-03-20T00:49:28.078Z,11.00
2023-03-20T09:06:58.779Z,12.90
2023-03-20T09:09:29.794Z,14.70
2023-03-20T09:11:58.236Z,14.80
2023-03-20T09:14:27.532Z,14.90
2023-03-20T09:16:56.197Z,15.00
2023-03-20T09:19:24.356Z,15.10
2023-03-20T09:21:52.342Z,15.20
2023-03-20T09:24:21.914Z,15.40
2023-03-20T09:26:50.781Z,15.70
2023-03-20T09:29:18.999Z,15.80
2023-03-20T09:31:47.151Z,16.30
2023-03-20T09:34:15.269Z,16.40
2023-03-20T09:36:43.413Z,16.10
2023-03-20T09:39:11.587Z,16.10
2023-03-20T09:41:55.887Z,16.10
2023-03-20T09:44:42.021Z,15.90
2023-03-20T09:47:21.145Z,15.80
2023-03-20T09:50:22.378Z,15.70
2023-03-20T09:52:58.496Z,15.60
2023-03-20T09:55:32.980Z,15.70
2023-03-20T09:58:08.423Z,15.80
2023-03-20T10:00:38.074Z,15.70
2023-03-20T10:03:10.920Z,15.60
2023-03-20T10:05:43.995Z,15.40
2023-03-20T10:08:16.965Z,15.20
2023-03-20T10:10:52.962Z,15.10
2023-03-20T10:13:49.390Z,15.20
2023-03-20T10:16:26.306Z,15.10
2023-03-20T10:19:05.276Z,15.10
2023-03-20T10:21:43.317Z,15.00
2023-03-20T10:24:19.620Z,15.30
2023-03-20T10:26:51.866Z,16.10
2023-03-20T10:29:30.878Z,17.10
2023-03-20T10:32:07.235Z,17.60
2023-03-20T10:34:49.704Z,17.80
2023-03-20T10:37:29.358Z,17.50
2023-03-20T10:40:05.941Z,17.30
2023-03-20T10:42:38.989Z,17.20
2023-03-20T10:45:24.794Z,17.00
2023-03-20T10:47:55.303Z,16.70
2023-03-20T10:50:27.604Z,16.50
2023-03-20T10:52:57.752Z,16.10
2023-03-20T10:55:29.462Z,16.60
2023-03-20T10:58:03.508Z,17.20
2023-03-20T11:00:34.224Z,17.90
2023-03-20T11:03:02.369Z,17.90
2023-03-20T11:05:32.944Z,18.50
2023-03-20T11:08:07.460Z,19.50
2023-03-20T11:10:37.454Z,20.50
2023-03-20T11:13:16.730Z,21.40
2023-03-20T11:15:47.138Z,22.80
2023-03-20T11:18:17.098Z,24.00
2023-03-20T11:20:48.638Z,24.90
2023-03-20T11:23:20.676Z,24.80
2023-03-20T11:25:53.357Z,23.50
2023-03-20T11:28:32.275Z,22.60
2023-03-20T11:31:05.566Z,21.60
2023-03-20T11:33:37.915Z,20.70
2023-03-20T11:36:13.344Z,20.20
2023-03-20T11:38:46.406Z,19.70
2023-03-20T11:41:19.919Z,19.20
2023-03-20T11:43:48.036Z,18.90
2023-03-20T11:46:17.464Z,18.60
2023-03-20T11:48:47.232Z,18.10
2023-03-20T11:51:18.106Z,17.90
2023-03-20T11:54:01.565Z,17.70
2023-03-20T11:56:31.934Z,17.60
2023-03-20T11:59:03.535Z,17.80
2023-03-20T12:01:44.776Z,17.60
2023-03-20T12:04:15.116Z,17.30
2023-03-20T12:06:47.402Z,17.20
2023-03-20T12:09:29.800Z,17.20
2023-03-20T12:12:02.701Z,16.90
2023-03-20T12:14:39.500Z,16.70
2023-03-20T12:17:29.439Z,16.50
2023-03-20T12:20:03.802Z,16.20
2023-03-20T12:22:37.003Z,16.30
2023-03-20T12:25:17.859Z,16.40
2023-03-20T12:27:51.587Z,16.50
2023-03-20T12:30:27.384Z,16.40
2023-03-20T12:33:04.060Z,16.40
2023-03-20T12:35:35.269Z,16.20
2023-03-20T12:38:03.953Z,16.20
2023-03-20T12:40:40.085Z,16.30
2023-03-20T12:43:17.053Z,16.10
2023-03-20T12:45:54.507Z,15.90
2023-03-20T12:48:42.000Z,15.90
2023-03-20T12:51:17.849Z,15.80
2023-03-20T12:53:56.246Z,15.60
2023-03-20T12:56:41.132Z,15.40
2023-03-20T12:59:16.515Z,15.00
2023-03-20T13:01:50.492Z,14.90
2023-03-20T13:04:44.008Z,14.70
2023-03-20T13:07:20.094Z,14.80
2023-03-20T13:10:10.827Z,14.90
2023-03-20T13:12:47.447Z,14.90
2023-03-20T13:15:26.294Z,14.80
2023-03-20T13:18:02.611Z,15.00
2023-03-20T13:20:35.221Z,15.10
2023-03-20T13:23:12.426Z,15.20
2023-03-20T13:26:03.600Z,15.30
2023-03-20T13:28:40.639Z,15.40
2023-03-20T13:31:21.282Z,15.70
2023-03-20T13:33:56.819Z,16.00
2023-03-20T13:36:40.682Z,16.20
2023-03-20T13:39:15.631Z,16.30
2023-03-20T13:41:45.762Z,16.20
2023-03-20T13:44:15.685Z,16.10
2023-03-20T13:46:46.934Z,16.20
2023-03-20T13:49:20.310Z,16.40
2023-03-20T13:51:57.938Z,16.20
2023-03-20T13:54:43.140Z,16.00
2023-03-20T13:57:20.823Z,15.80
2023-03-20T14:00:01.880Z,15.70
2023-03-20T14:02:37.240Z,15.50
2023-03-20T14:05:11.951Z,15.40
2023-03-20T14:07:44.974Z,15.50
2023-03-20T14:10:35.265Z,15.50
2023-03-20T14:13:07.182Z,15.60
2023-03-20T14:15:37.133Z,15.50
2023-03-20T14:18:06.676Z,15.30
2023-03-20T14:20:38.098Z,15.00
2023-03-20T14:23:08.821Z,15.00
2023-03-20T14:25:42.178Z,15.10
2023-03-20T14:28:28.537Z,15.10
2023-03-20T14:31:24.573Z,15.10
2023-03-20T14:34:01.577Z,15.20
2023-03-20T14:36:45.945Z,15.30
2023-03-20T14:39:27.166Z,15.50
2023-03-20T14:42:06.638Z,15.70
2023-03-20T14:44:55.809Z,15.80
2023-03-20T14:47:37.417Z,15.80
2023-03-20T14:50:15.490Z,15.70
2023-03-20T14:52:54.113Z,15.70
2023-03-20T14:55:35.871Z,15.60
2023-03-20T14:58:06.504Z,15.70
2023-03-20T15:00:46.977Z,15.70
2023-03-20T15:03:17.613Z,15.80
2023-03-20T15:05:46.430Z,15.80
2023-03-20T15:08:22.054Z,15.60
2023-03-20T15:10:53.937Z,15.40
2023-03-20T15:13:24.619Z,15.00
2023-03-20T15:15:55.147Z,15.00
2023-03-20T15:18:24.658Z,15.10
2023-03-20T15:20:52.961Z,15.40
2023-03-20T15:23:20.875Z,15.20
2023-03-20T15:25:51.855Z,15.20
2023-03-20T15:28:22.329Z,15.20
2023-03-20T15:30:53.623Z,15.10
2023-03-20T15:33:26.958Z,15.00
2023-03-20T15:35:55.031Z,15.00
2023-03-20T15:38:23.556Z,14.80
2023-03-20T15:40:53.662Z,14.80
2023-03-20T15:43:24.704Z,14.80
2023-03-20T15:46:14.302Z,14.80
2023-03-20T15:48:47.814Z,14.80
2023-03-20T15:51:16.154Z,14.50
2023-03-20T15:53:48.058Z,14.40
2023-03-20T15:56:20.952Z,14.30
2023-03-20T15:58:52.206Z,14.30
2023-03-20T16:01:22.118Z,14.40
2023-03-20T16:03:51.118Z,14.20
2023-03-20T16:06:21.938Z,14.20
2023-03-20T16:08:59.424Z,14.20
2023-03-20T16:11:38.086Z,14.20
2023-03-20T16:14:07.586Z,14.10
2023-03-20T16:16:37.530Z,14.10
2023-03-20T16:19:07.013Z,14.10
2023-03-20T16:21:38.609Z,14.10
2023-03-20T16:24:11.578Z,13.90
2023-03-20T16:26:44.011Z,13.80
2023-03-20T16:29:15.241Z,13.70
2023-03-20T16:31:49.092Z,13.60
2023-03-20T16:34:20.685Z,13.60
2023-03-20T16:36:55.022Z,13.60
2023-03-20T16:39:27.134Z,13.50
2023-03-20T16:42:10.846Z,13.50
2023-03-20T16:44:41.521Z,13.60
2023-03-20T16:47:23.430Z,13.50
2023-03-20T16:50:19.106Z,13.40
2023-03-20T16:52:49.554Z,13.30
2023-03-20T16:55:23.617Z,13.20
2023-03-20T16:57:56.902Z,13.30
2023-03-20T17:00:28.580Z,13.20
2023-03-20T17:03:13.810Z,13.20
2023-03-20T17:06:00.611Z,13.10
2023-03-20T17:08:31.959Z,13.00
2023-03-20T17:11:04.112Z,13.00
2023-03-20T17:13:34.060Z,13.00
2023-03-20T17:16:02.156Z,12.90
2023-03-20T17:18:30.949Z,13.00
2023-03-20T17:20:59.120Z,12.90
2023-03-20T17:23:27.065Z,12.90
2023-03-20T17:25:55.124Z,12.70
2023-03-20T17:28:25.726Z,12.70
2023-03-20T17:30:55.328Z,12.70
2023-03-20T17:33:23.288Z,12.60
2023-03-20T17:35:52.934Z,12.60
2023-03-20T17:38:23.180Z,12.50
2023-03-20T17:40:52.440Z,12.50
2023-03-20T17:43:21.360Z,12.50
2023-03-20T17:45:49.783Z,12.30
2023-03-20T17:48:21.129Z,12.20
2023-03-20T17:50:51.482Z,12.20
2023-03-20T17:53:21.133Z,12.20
2023-03-20T17:55:49.019Z,12.10
2023-03-20T17:58:18.399Z,12.20
2023-03-20T18:00:46.384Z,12.30
2023-03-20T18:03:15.476Z,12.20
2023-03-20T18:05:45.763Z,11.90
2023-03-20T18:08:20.021Z,12.10
2023-03-20T18:10:48.335Z,12.10
2023-03-20T18:13:18.573Z,12.00
2023-03-20T18:15:47.687Z,12.00
2023-03-20T18:18:15.990Z,11.90
2023-03-20T18:20:46.946Z,11.80
2023-03-20T18:23:15.894Z,11.80
2023-03-20T18:25:44.081Z,11.70
2023-03-20T18:28:15.018Z,11.60
2023-03-20T18:30:43.537Z,11.60
2023-03-20T18:33:11.586Z,11.50
2023-03-20T18:35:39.888Z,11.40
2023-03-20T18:38:12.710Z,11.30
2023-03-20T18:40:40.629Z,11.40
2023-03-20T18:43:08.530Z,11.30
2023-03-20T18:45:36.714Z,11.30
2023-03-20T18:48:04.794Z,11.30
2023-03-20T18:50:37.546Z,11.20
2023-03-20T18:53:06.900Z,11.10
2023-03-20T18:55:38.004Z,11.20
2023-03-20T18:58:06.611Z,11.00
2023-03-20T19:00:38.148Z,11.20
2023-03-20T19:03:07.526Z,11.20
2023-03-20T19:05:36.027Z,11.20
2023-03-20T19:08:04.790Z,11.10
2023-03-20T19:10:36.384Z,11.20
2023-03-20T19:13:08.132Z,11.10
2023-03-20T19:15:38.829Z,11.10
2023-03-20T19:18:08.269Z,11.10
2023-03-20T19:20:38.904Z,11.10
2023-03-20T19:23:08.910Z,11.20
2023-03-20T19:25:37.949Z,11.20
2023-03-20T19:28:09.644Z,11.10
2023-03-20T19:30:42.103Z,11.10
2023-03-20T19:33:10.997Z,11.20
2023-03-20T19:36:01.406Z,11.20
2023-03-20T19:38:27.009Z,11.20
2023-03-20T19:40:55.187Z,11.20
2023-03-20T19:43:24.525Z,11.20
2023-03-20T19:45:58.356Z,11.30
2023-03-20T19:48:46.060Z,11.30
2023-03-20T19:51:19.473Z,11.20
2023-03-20T19:53:48.609Z,11.20
2023-03-20T19:56:18.310Z,11.20
2023-03-20T19:58:48.284Z,11.20
2023-03-20T20:01:18.595Z,11.20
2023-03-20T20:03:47.193Z,11.20
2023-03-20T20:06:15.990Z,11.20
2023-03-20T20:08:48.724Z,11.20
2023-03-20T20:11:17.331Z,11.30
2023-03-20T20:14:07.071Z,11.30
2023-03-20T20:16:36.416Z,11.30
2023-03-20T20:19:05.113Z,11.40
2023-03-20T20:24:22.043Z,11.50
2023-03-20T20:26:55.582Z,11.50
2023-03-20T20:29:31.711Z,11.50
2023-03-20T20:32:02.009Z,11.50
2023-03-20T20:40:08.035Z,11.60
2023-03-20T20:42:37.247Z,11.50
2023-03-20T20:45:07.027Z,11.60
2023-03-20T20:47:36.805Z,11.50
2023-03-20T20:50:05.382Z,11.50
2023-03-20T20:52:40.286Z,11.60
2023-03-20T20:55:22.007Z,11.50
2023-03-20T20:57:51.549Z,11.50
2023-03-20T21:00:21.217Z,11.40
2023-03-20T21:02:51.036Z,11.20
2023-03-20T21:05:19.271Z,11.20
2023-03-20T21:07:49.663Z,11.20
2023-03-20T21:10:19.999Z,11.20
2023-03-20T21:12:58.908Z,11.10
2023-03-20T21:15:28.017Z,10.90
2023-03-20T21:18:01.583Z,10.90
2023-03-20T21:20:30.572Z,11.00
2023-03-20T21:22:59.101Z,10.90
2023-03-20T21:25:39.086Z,10.90
2023-03-20T21:28:07.701Z,10.80
2023-03-20T21:30:35.907Z,10.70
2023-03-20T21:33:05.738Z,10.70
2023-03-20T21:35:33.833Z,10.70
2023-03-20T21:38:47.651Z,10.60
2023-03-20T21:40:49.948Z,10.50
2023-03-20T21:43:17.877Z,10.40
2023-03-20T21:49:24.012Z,10.30
2023-03-20T22:00:31.677Z,10.10
2023-03-20T22:02:36.850Z,10.10
2023-03-20T22:05:48.601Z,10.00
2023-03-20T22:09:30.991Z,10.00
2023-03-20T22:17:29.925Z,9.80
2023-03-20T22:20:03.027Z,9.80
2023-03-20T22:23:06.844Z,9.70
2023-03-20T22:25:37.573Z,9.70
2023-03-20T22:28:15.762Z,9.70
2023-03-20T22:42:24.256Z,9.60
2023-03-20T22:47:16.928Z,9.60
2023-03-20T22:49:45.033Z,9.60
2023-03-20T22:52:26.633Z,9.60
2023-03-20T22:54:58.995Z,9.60
2023-03-20T22:57:40.214Z,9.60
2023-03-20T23:00:14.510Z,9.70
2023-03-20T23:02:43.070Z,9.70
2023-03-20T23:05:11.635Z,9.70
2023-03-20T23:07:39.867Z,9.80
2023-03-20T23:10:13.239Z,9.80
2023-03-20T23:12:43.967Z,9.70
2023-03-20T23:15:12.589Z,9.70
2023-03-20T23:17:40.632Z,9.70
2023-03-20T23:20:13.229Z,9.70
2023-03-20T23:22:43.140Z,9.80
2023-03-20T23:25:20.667Z,9.80
2023-03-20T23:27:55.716Z,9.90
2023-03-20T23:30:27.530Z,9.90
2023-03-20T23:32:58.886Z,9.70
2023-03-20T23:35:26.916Z,9.90
2023-03-20T23:37:54.818Z,9.90
2023-03-20T23:40:24.354Z,9.90
2023-03-20T23:42:52.261Z,9.90
2023-03-20T23:45:21.368Z,9.90
2023-03-20T23:47:49.702Z,9.90
2023-03-20T23:53:19.380Z,9.90
2023-03-20T23:55:51.168Z,9.90
2023-03-20T23:58:20.326Z,9.90
